sensor_id;sensor_type;location;lat;lon;timestamp;pressure;altitude;pressure_sealevel;temperature;humidity
69351;BME280;57106;51.446;-2.606;2023-04-25T00:01:33;101576.85;;;8.25;67.84
69351;BME280;57106;51.446;-2.606;2023-04-25T00:04:00;101579.34;;;8.14;67.88
69351;BME280;57106;51.446;-2.606;2023-04-25T00:06:32;101580.66;;;8.19;67.38
69351;BME280;57106;51.446;-2.606;2023-04-25T00:08:50;101582.09;;;8.24;66.90
69351;BME280;57106;51.446;-2.606;2023-04-25T00:11:16;101577.30;;;8.21;67.01
69351;BME280;57106;51.446;-2.606;2023-04-25T00:13:44;101576.77;;;8.12;67.40
69351;BME280;57106;51.446;-2.606;2023-04-25T00:16:13;101577.91;;;8.01;67.44
69351;BME280;57106;51.446;-2.606;2023-04-25T00:18:35;101579.27;;;8.11;67.89
69351;BME280;57106;51.446;-2.606;2023-04-25T00:23:29;101581.56;;;8.02;66.99
69351;BME280;57106;51.446;-2.606;2023-04-25T00:25:50;101584.21;;;8.21;66.77
69351;BME280;57106;51.446;-2.606;2023-04-25T00:28:16;101590.77;;;8.26;67.18
69351;BME280;57106;51.446;-2.606;2023-04-25T00:30:43;101593.00;;;8.09;67.58
69351;BME280;57106;51.446;-2.606;2023-04-25T00:33:07;101599.71;;;8.08;68.45
69351;BME280;57106;51.446;-2.606;2023-04-25T00:35:32;101595.27;;;8.15;67.50
69351;BME280;57106;51.446;-2.606;2023-04-25T00:37:59;101597.14;;;8.31;67.52
69351;BME280;57106;51.446;-2.606;2023-04-25T00:40:24;101595.08;;;8.23;67.88
69351;BME280;57106;51.446;-2.606;2023-04-25T00:42:52;101597.87;;;8.37;67.40
69351;BME280;57106;51.446;-2.606;2023-04-25T00:45:15;101602.90;;;8.06;68.76
69351;BME280;57106;51.446;-2.606;2023-04-25T00:47:40;101601.75;;;7.79;69.69
69351;BME280;57106;51.446;-2.606;2023-04-25T00:50:07;101603.12;;;7.82;70.13
69351;BME280;57106;51.446;-2.606;2023-04-25T00:52:31;101602.47;;;7.87;70.04
69351;BME280;57106;51.446;-2.606;2023-04-25T00:54:56;101602.40;;;7.90;69.56
69351;BME280;57106;51.446;-2.606;2023-04-25T00:57:23;101603.80;;;7.95;70.07
69351;BME280;57106;51.446;-2.606;2023-04-25T00:59:51;101601.30;;;7.76;71.01
69351;BME280;57106;51.446;-2.606;2023-04-25T01:02:13;101603.13;;;7.88;71.14
69351;BME280;57106;51.446;-2.606;2023-04-25T01:04:40;101605.82;;;7.84;71.71
69351;BME280;57106;51.446;-2.606;2023-04-25T01:07:05;101602.88;;;8.19;70.77
69351;BME280;57106;51.446;-2.606;2023-04-25T01:09:30;101606.00;;;8.36;70.42
69351;BME280;57106;51.446;-2.606;2023-04-25T01:11:56;101612.03;;;8.03;71.14
69351;BME280;57106;51.446;-2.606;2023-04-25T01:14:22;101615.03;;;8.07;71.30
69351;BME280;57106;51.446;-2.606;2023-04-25T01:19:17;101621.36;;;8.12;71.20
69351;BME280;57106;51.446;-2.606;2023-04-25T01:21:39;101624.41;;;7.94;71.37
69351;BME280;57106;51.446;-2.606;2023-04-25T01:24:20;101623.30;;;7.61;71.81
69351;BME280;57106;51.446;-2.606;2023-04-25T01:33:49;101614.08;;;7.88;71.12
69351;BME280;57106;51.446;-2.606;2023-04-25T01:36:13;101618.13;;;8.17;70.46
69351;BME280;57106;51.446;-2.606;2023-04-25T01:38:40;101614.98;;;8.30;70.20
69351;BME280;57106;51.446;-2.606;2023-04-25T01:45:57;101616.11;;;8.37;69.63
69351;BME280;57106;51.446;-2.606;2023-04-25T01:48:30;101626.05;;;8.04;70.37
69351;BME280;57106;51.446;-2.606;2023-04-25T01:50:59;101622.06;;;8.16;70.32
69351;BME280;57106;51.446;-2.606;2023-04-25T01:58:14;101628.60;;;7.92;70.91
69351;BME280;57106;51.446;-2.606;2023-04-25T02:07:45;101642.69;;;7.60;72.59
69351;BME280;57106;51.446;-2.606;2023-04-25T02:10:11;101643.33;;;7.76;72.90
69351;BME280;57106;51.446;-2.606;2023-04-25T02:41:43;101649.17;;;7.69;72.23
69351;BME280;57106;51.446;-2.606;2023-04-25T03:25:22;101681.54;;;6.41;71.05
69351;BME280;57106;51.446;-2.606;2023-04-25T05:41:25;101806.12;;;6.60;70.07
69351;BME280;57106;51.446;-2.606;2023-04-25T05:58:24;101833.62;;;7.19;68.66
69351;BME280;57106;51.446;-2.606;2023-04-25T07:11:19;101852.27;;;6.68;60.79
69351;BME280;57106;51.446;-2.606;2023-04-25T07:13:40;101852.60;;;6.59;61.18
69351;BME280;57106;51.446;-2.606;2023-04-25T07:37:58;101868.31;;;7.12;59.60
69351;BME280;57106;51.446;-2.606;2023-04-25T07:42:49;101868.42;;;7.66;59.46
69351;BME280;57106;51.446;-2.606;2023-04-25T07:50:08;101868.15;;;7.59;57.33
69351;BME280;57106;51.446;-2.606;2023-04-25T07:57:38;101875.03;;;7.92;55.71
69351;BME280;57106;51.446;-2.606;2023-04-25T08:29:16;101862.27;;;8.12;52.62
69351;BME280;57106;51.446;-2.606;2023-04-25T08:31:39;101861.11;;;8.32;52.66
69351;BME280;57106;51.446;-2.606;2023-04-25T08:38:43;101865.61;;;7.90;52.31
69351;BME280;57106;51.446;-2.606;2023-04-25T09:05:24;101862.68;;;8.04;49.96
69351;BME280;57106;51.446;-2.606;2023-04-25T10:13:19;101851.09;;;8.95;42.68
69351;BME280;57106;51.446;-2.606;2023-04-25T10:40:09;101875.28;;;9.76;45.83
69351;BME280;57106;51.446;-2.606;2023-04-25T11:18:50;101853.55;;;10.57;43.45
69351;BME280;57106;51.446;-2.606;2023-04-25T11:21:16;101853.78;;;10.85;42.68
69351;BME280;57106;51.446;-2.606;2023-04-25T11:23:44;101856.52;;;11.25;42.36
69351;BME280;57106;51.446;-2.606;2023-04-25T11:26:06;101853.81;;;11.40;40.72
69351;BME280;57106;51.446;-2.606;2023-04-25T11:28:32;101848.21;;;11.19;40.89
69351;BME280;57106;51.446;-2.606;2023-04-25T11:30:57;101850.34;;;11.44;41.56
69351;BME280;57106;51.446;-2.606;2023-04-25T11:33:25;101854.15;;;11.60;41.33
69351;BME280;57106;51.446;-2.606;2023-04-25T11:35:49;101864.16;;;11.20;40.85
69351;BME280;57106;51.446;-2.606;2023-04-25T11:38:14;101860.06;;;11.05;40.91
69351;BME280;57106;51.446;-2.606;2023-04-25T11:40:41;101856.75;;;11.38;40.41
69351;BME280;57106;51.446;-2.606;2023-04-25T11:45:31;101857.89;;;10.96;42.38
69351;BME280;57106;51.446;-2.606;2023-04-25T11:55:16;101859.63;;;10.47;41.61
69351;BME280;57106;51.446;-2.606;2023-04-25T11:57:40;101857.89;;;10.42;41.51
69351;BME280;57106;51.446;-2.606;2023-04-25T12:00:10;101857.90;;;10.69;41.72
69351;BME280;57106;51.446;-2.606;2023-04-25T12:02:35;101863.02;;;10.79;41.17
69351;BME280;57106;51.446;-2.606;2023-04-25T12:05:00;101869.47;;;11.12;40.05
69351;BME280;57106;51.446;-2.606;2023-04-25T12:07:20;101866.83;;;10.88;40.87
69351;BME280;57106;51.446;-2.606;2023-04-25T12:09:52;101866.99;;;11.04;41.86
69351;BME280;57106;51.446;-2.606;2023-04-25T12:12:12;101867.80;;;10.65;40.61
69351;BME280;57106;51.446;-2.606;2023-04-25T12:14:37;101872.74;;;10.73;41.17
69351;BME280;57106;51.446;-2.606;2023-04-25T12:17:08;101874.01;;;11.02;40.18
69351;BME280;57106;51.446;-2.606;2023-04-25T12:19:33;101871.49;;;11.63;39.65
69351;BME280;57106;51.446;-2.606;2023-04-25T12:21:54;101871.87;;;11.47;38.37
69351;BME280;57106;51.446;-2.606;2023-04-25T12:24:22;101872.30;;;11.94;37.72
69351;BME280;57106;51.446;-2.606;2023-04-25T12:26:49;101870.19;;;12.24;37.85
69351;BME280;57106;51.446;-2.606;2023-04-25T12:29:19;101866.59;;;12.22;37.04
69351;BME280;57106;51.446;-2.606;2023-04-25T12:31:37;101869.32;;;12.37;38.28
69351;BME280;57106;51.446;-2.606;2023-04-25T12:34:07;101866.24;;;12.49;38.34
69351;BME280;57106;51.446;-2.606;2023-04-25T12:36:30;101868.81;;;12.40;38.96
69351;BME280;57106;51.446;-2.606;2023-04-25T12:38:52;101857.87;;;12.22;38.52
69351;BME280;57106;51.446;-2.606;2023-04-25T12:43:44;101857.61;;;11.96;40.16
69351;BME280;57106;51.446;-2.606;2023-04-25T12:46:09;101861.51;;;11.65;40.38
69351;BME280;57106;51.446;-2.606;2023-04-25T12:48:35;101856.86;;;12.10;39.42
69351;BME280;57106;51.446;-2.606;2023-04-25T12:51:00;101856.60;;;12.46;38.55
69351;BME280;57106;51.446;-2.606;2023-04-25T12:53:31;101854.06;;;11.93;39.54
69351;BME280;57106;51.446;-2.606;2023-04-25T12:55:51;101852.40;;;12.09;39.00
69351;BME280;57106;51.446;-2.606;2023-04-25T12:58:18;101847.88;;;12.20;38.80
69351;BME280;57106;51.446;-2.606;2023-04-25T13:00:42;101843.50;;;12.58;38.39
69351;BME280;57106;51.446;-2.606;2023-04-25T13:03:08;101849.79;;;12.80;36.91
69351;BME280;57106;51.446;-2.606;2023-04-25T13:05:33;101850.23;;;13.04;37.01
69351;BME280;57106;51.446;-2.606;2023-04-25T13:07:59;101852.14;;;12.85;37.49
69351;BME280;57106;51.446;-2.606;2023-04-25T13:10:28;101848.52;;;12.52;37.97
69351;BME280;57106;51.446;-2.606;2023-04-25T13:12:49;101844.11;;;12.12;38.13
69351;BME280;57106;51.446;-2.606;2023-04-25T13:15:17;101844.62;;;12.54;37.67
69351;BME280;57106;51.446;-2.606;2023-04-25T13:17:42;101846.57;;;13.01;38.07
69351;BME280;57106;51.446;-2.606;2023-04-25T13:20:08;101849.34;;;12.88;37.93
69351;BME280;57106;51.446;-2.606;2023-04-25T13:22:32;101846.37;;;12.84;38.15
69351;BME280;57106;51.446;-2.606;2023-04-25T13:24:57;101845.23;;;13.28;37.73
69351;BME280;57106;51.446;-2.606;2023-04-25T13:27:23;101840.05;;;13.45;37.16
69351;BME280;57106;51.446;-2.606;2023-04-25T13:29:48;101844.31;;;13.20;37.75
69351;BME280;57106;51.446;-2.606;2023-04-25T13:32:16;101843.26;;;12.71;38.32
69351;BME280;57106;51.446;-2.606;2023-04-25T13:34:39;101842.36;;;12.29;38.83
69351;BME280;57106;51.446;-2.606;2023-04-25T13:37:04;101835.72;;;12.42;38.22
69351;BME280;57106;51.446;-2.606;2023-04-25T13:39:30;101833.27;;;12.51;38.45
69351;BME280;57106;51.446;-2.606;2023-04-25T13:42:02;101831.59;;;12.35;38.14
69351;BME280;57106;51.446;-2.606;2023-04-25T13:44:22;101834.35;;;12.25;38.22
69351;BME280;57106;51.446;-2.606;2023-04-25T13:56:30;101826.46;;;12.45;37.50
69351;BME280;57106;51.446;-2.606;2023-04-25T13:58:56;101825.93;;;12.48;38.01
69351;BME280;57106;51.446;-2.606;2023-04-25T14:01:20;101828.96;;;12.37;38.14
69351;BME280;57106;51.446;-2.606;2023-04-25T14:03:46;101831.70;;;12.71;37.67
69351;BME280;57106;51.446;-2.606;2023-04-25T14:06:12;101827.21;;;13.21;36.52
69351;BME280;57106;51.446;-2.606;2023-04-25T14:08:37;101825.58;;;13.10;36.49
69351;BME280;57106;51.446;-2.606;2023-04-25T14:11:05;101822.22;;;13.34;35.95
69351;BME280;57106;51.446;-2.606;2023-04-25T14:13:28;101822.53;;;13.31;36.54
69351;BME280;57106;51.446;-2.606;2023-04-25T14:15:53;101825.23;;;12.63;37.46
69351;BME280;57106;51.446;-2.606;2023-04-25T14:18:19;101824.93;;;12.62;37.44
69351;BME280;57106;51.446;-2.606;2023-04-25T14:20:44;101823.20;;;12.45;38.08
69351;BME280;57106;51.446;-2.606;2023-04-25T14:23:12;101826.95;;;12.64;37.06
69351;BME280;57106;51.446;-2.606;2023-04-25T14:25:41;101824.10;;;12.78;37.68
69351;BME280;57106;51.446;-2.606;2023-04-25T14:28:00;101827.01;;;13.01;37.59
69351;BME280;57106;51.446;-2.606;2023-04-25T14:30:27;101823.67;;;12.57;37.98
69351;BME280;57106;51.446;-2.606;2023-04-25T14:32:51;101819.11;;;12.83;37.14
69351;BME280;57106;51.446;-2.606;2023-04-25T14:35:18;101821.70;;;12.59;37.82
69351;BME280;57106;51.446;-2.606;2023-04-25T14:37:43;101817.58;;;12.53;37.51
69351;BME280;57106;51.446;-2.606;2023-04-25T14:40:09;101820.98;;;12.75;37.60
69351;BME280;57106;51.446;-2.606;2023-04-25T14:42:34;101816.03;;;12.37;37.15
69351;BME280;57106;51.446;-2.606;2023-04-25T14:44:59;101819.54;;;12.31;37.33
69351;BME280;57106;51.446;-2.606;2023-04-25T14:47:27;101817.91;;;12.06;37.73
69351;BME280;57106;51.446;-2.606;2023-04-25T14:49:50;101814.47;;;12.18;37.82
69351;BME280;57106;51.446;-2.606;2023-04-25T14:52:15;101811.41;;;12.14;36.93
69351;BME280;57106;51.446;-2.606;2023-04-25T14:54:43;101807.28;;;12.01;37.16
69351;BME280;57106;51.446;-2.606;2023-04-25T14:57:07;101808.06;;;12.15;37.53
69351;BME280;57106;51.446;-2.606;2023-04-25T14:59:33;101802.97;;;12.21;36.24
69351;BME280;57106;51.446;-2.606;2023-04-25T15:02:02;101803.03;;;12.61;35.76
69351;BME280;57106;51.446;-2.606;2023-04-25T15:04:27;101804.07;;;12.43;37.14
69351;BME280;57106;51.446;-2.606;2023-04-25T15:06:48;101803.86;;;12.49;37.28
69351;BME280;57106;51.446;-2.606;2023-04-25T15:09:30;101803.35;;;12.68;36.20
69351;BME280;57106;51.446;-2.606;2023-04-25T15:11:41;101803.78;;;12.59;36.69
69351;BME280;57106;51.446;-2.606;2023-04-25T15:14:05;101800.04;;;12.88;36.51
69351;BME280;57106;51.446;-2.606;2023-04-25T15:16:35;101794.96;;;13.16;35.64
69351;BME280;57106;51.446;-2.606;2023-04-25T15:18:58;101794.55;;;13.39;35.75
69351;BME280;57106;51.446;-2.606;2023-04-25T15:21:22;101792.49;;;13.37;35.76
69351;BME280;57106;51.446;-2.606;2023-04-25T15:23:48;101789.25;;;13.20;35.91
69351;BME280;57106;51.446;-2.606;2023-04-25T15:26:13;101788.34;;;13.36;35.52
69351;BME280;57106;51.446;-2.606;2023-04-25T15:28:39;101789.51;;;13.55;34.86
69351;BME280;57106;51.446;-2.606;2023-04-25T15:31:04;101787.67;;;13.75;35.71
69351;BME280;57106;51.446;-2.606;2023-04-25T15:33:30;101787.37;;;13.39;34.82
69351;BME280;57106;51.446;-2.606;2023-04-25T15:35:55;101779.97;;;13.29;36.19
69351;BME280;57106;51.446;-2.606;2023-04-25T15:40:46;101779.71;;;13.82;35.52
69351;BME280;57106;51.446;-2.606;2023-04-25T15:43:12;101770.02;;;13.87;35.68
69351;BME280;57106;51.446;-2.606;2023-04-25T15:45:37;101774.16;;;13.52;35.97
69351;BME280;57106;51.446;-2.606;2023-04-25T15:48:03;101772.54;;;13.35;35.81
69351;BME280;57106;51.446;-2.606;2023-04-25T15:50:29;101768.35;;;12.98;36.56
69351;BME280;57106;51.446;-2.606;2023-04-25T15:52:56;101778.97;;;12.78;37.18
69351;BME280;57106;51.446;-2.606;2023-04-25T15:55:19;101780.28;;;12.82;36.98
69351;BME280;57106;51.446;-2.606;2023-04-25T15:57:48;101778.58;;;12.48;37.65
69351;BME280;57106;51.446;-2.606;2023-04-25T16:00:13;101773.13;;;12.63;37.31
69351;BME280;57106;51.446;-2.606;2023-04-25T16:05:04;101777.56;;;12.37;36.79
69351;BME280;57106;51.446;-2.606;2023-04-25T16:07:27;101776.72;;;12.36;37.08
69351;BME280;57106;51.446;-2.606;2023-04-25T16:09:53;101770.28;;;12.02;37.91
69351;BME280;57106;51.446;-2.606;2023-04-25T16:12:19;101766.91;;;12.08;36.92
69351;BME280;57106;51.446;-2.606;2023-04-25T16:14:43;101767.41;;;12.02;37.14
69351;BME280;57106;51.446;-2.606;2023-04-25T16:17:09;101763.86;;;12.02;37.77
69351;BME280;57106;51.446;-2.606;2023-04-25T16:19:34;101762.03;;;11.91;37.75
69351;BME280;57106;51.446;-2.606;2023-04-25T16:22:00;101762.27;;;12.08;37.37
69351;BME280;57106;51.446;-2.606;2023-04-25T16:26:51;101762.94;;;12.48;36.82
69351;BME280;57106;51.446;-2.606;2023-04-25T16:29:20;101759.87;;;12.74;35.64
69351;BME280;57106;51.446;-2.606;2023-04-25T16:31:42;101756.23;;;12.77;35.17
69351;BME280;57106;51.446;-2.606;2023-04-25T16:34:08;101759.37;;;12.78;36.05
69351;BME280;57106;51.446;-2.606;2023-04-25T16:36:33;101758.73;;;13.02;37.18
69351;BME280;57106;51.446;-2.606;2023-04-25T16:38:59;101750.16;;;13.11;37.07
69351;BME280;57106;51.446;-2.606;2023-04-25T16:41:25;101748.40;;;13.01;37.37
69351;BME280;57106;51.446;-2.606;2023-04-25T16:43:50;101748.57;;;12.77;37.32
69351;BME280;57106;51.446;-2.606;2023-04-25T16:46:16;101743.77;;;12.40;37.69
69351;BME280;57106;51.446;-2.606;2023-04-25T16:48:41;101747.39;;;12.27;38.13
69351;BME280;57106;51.446;-2.606;2023-04-25T16:51:06;101747.56;;;12.19;37.90
69351;BME280;57106;51.446;-2.606;2023-04-25T16:53:32;101741.27;;;12.13;38.27
69351;BME280;57106;51.446;-2.606;2023-04-25T16:55:58;101740.62;;;11.82;38.69
69351;BME280;57106;51.446;-2.606;2023-04-25T16:58:25;101738.76;;;11.76;38.68
69351;BME280;57106;51.446;-2.606;2023-04-25T17:00:49;101737.16;;;11.93;38.77
69351;BME280;57106;51.446;-2.606;2023-04-25T17:05:42;101731.32;;;11.73;38.20
69351;BME280;57106;51.446;-2.606;2023-04-25T17:08:05;101730.00;;;12.03;38.23
69351;BME280;57106;51.446;-2.606;2023-04-25T17:12:57;101729.41;;;12.28;37.79
69351;BME280;57106;51.446;-2.606;2023-04-25T17:17:49;101723.89;;;12.53;37.19
69351;BME280;57106;51.446;-2.606;2023-04-25T17:20:13;101718.20;;;12.70;37.96
69351;BME280;57106;51.446;-2.606;2023-04-25T17:22:39;101713.00;;;12.87;37.08
69351;BME280;57106;51.446;-2.606;2023-04-25T17:25:06;101711.58;;;12.95;37.20
69351;BME280;57106;51.446;-2.606;2023-04-25T17:27:29;101717.39;;;12.61;38.12
69351;BME280;57106;51.446;-2.606;2023-04-25T17:32:21;101717.07;;;12.93;37.57
69351;BME280;57106;51.446;-2.606;2023-04-25T17:34:46;101718.26;;;13.06;37.46
69351;BME280;57106;51.446;-2.606;2023-04-25T17:37:12;101712.60;;;12.95;38.32
69351;BME280;57106;51.446;-2.606;2023-04-25T17:39:37;101715.60;;;12.85;38.34
69351;BME280;57106;51.446;-2.606;2023-04-25T17:42:02;101714.35;;;12.93;37.96
69351;BME280;57106;51.446;-2.606;2023-04-25T17:44:28;101715.54;;;12.57;38.21
69351;BME280;57106;51.446;-2.606;2023-04-25T17:46:54;101716.84;;;12.81;37.87
69351;BME280;57106;51.446;-2.606;2023-04-25T17:49:19;101712.96;;;12.48;38.00
69351;BME280;57106;51.446;-2.606;2023-04-25T17:51:45;101713.35;;;12.38;38.23
69351;BME280;57106;51.446;-2.606;2023-04-25T17:54:16;101713.79;;;12.21;38.51
69351;BME280;57106;51.446;-2.606;2023-04-25T17:56:37;101717.32;;;12.27;38.07
69351;BME280;57106;51.446;-2.606;2023-04-25T17:59:04;101714.25;;;11.98;38.10
69351;BME280;57106;51.446;-2.606;2023-04-25T18:01:28;101712.40;;;11.90;38.36
69351;BME280;57106;51.446;-2.606;2023-04-25T18:03:53;101709.50;;;11.83;38.54
69351;BME280;57106;51.446;-2.606;2023-04-25T18:20:51;101704.34;;;12.02;38.71
69351;BME280;57106;51.446;-2.606;2023-04-25T18:23:17;101703.58;;;12.22;38.62
69351;BME280;57106;51.446;-2.606;2023-04-25T18:25:43;101705.58;;;12.01;39.32
69351;BME280;57106;51.446;-2.606;2023-04-25T18:28:11;101708.77;;;11.99;39.24
69351;BME280;57106;51.446;-2.606;2023-04-25T18:30:34;101711.33;;;11.69;38.82
69351;BME280;57106;51.446;-2.606;2023-04-25T18:32:59;101709.85;;;11.75;38.35
69351;BME280;57106;51.446;-2.606;2023-04-25T18:35:25;101711.38;;;11.75;38.38
69351;BME280;57106;51.446;-2.606;2023-04-25T18:37:50;101712.91;;;11.75;38.66
69351;BME280;57106;51.446;-2.606;2023-04-25T18:42:42;101719.25;;;11.22;39.23
69351;BME280;57106;51.446;-2.606;2023-04-25T18:45:14;101722.29;;;11.20;39.12
69351;BME280;57106;51.446;-2.606;2023-04-25T18:47:33;101723.05;;;11.41;39.38
69351;BME280;57106;51.446;-2.606;2023-04-25T18:49:58;101731.43;;;11.46;39.90
69351;BME280;57106;51.446;-2.606;2023-04-25T18:52:35;101731.26;;;11.59;39.56
69351;BME280;57106;51.446;-2.606;2023-04-25T18:54:50;101730.61;;;11.67;39.60
69351;BME280;57106;51.446;-2.606;2023-04-25T18:59:43;101728.75;;;11.41;39.92
69351;BME280;57106;51.446;-2.606;2023-04-25T19:02:13;101734.17;;;11.51;40.17
69351;BME280;57106;51.446;-2.606;2023-04-25T19:07:08;101740.54;;;11.46;40.42
69351;BME280;57106;51.446;-2.606;2023-04-25T19:19:06;101739.00;;;11.21;41.91
69351;BME280;57106;51.446;-2.606;2023-04-25T19:21:31;101737.82;;;11.23;42.12
69351;BME280;57106;51.446;-2.606;2023-04-25T19:23:56;101736.68;;;11.26;41.62
69351;BME280;57106;51.446;-2.606;2023-04-25T19:26:21;101743.42;;;11.05;42.19
69351;BME280;57106;51.446;-2.606;2023-04-25T19:31:13;101746.34;;;10.96;42.49
69351;BME280;57106;51.446;-2.606;2023-04-25T19:33:38;101750.01;;;10.84;42.76
69351;BME280;57106;51.446;-2.606;2023-04-25T19:36:04;101751.21;;;10.66;43.30
69351;BME280;57106;51.446;-2.606;2023-04-25T19:38:33;101752.29;;;10.70;43.45
69351;BME280;57106;51.446;-2.606;2023-04-25T19:40:56;101754.45;;;10.81;43.20
69351;BME280;57106;51.446;-2.606;2023-04-25T19:43:21;101752.89;;;10.89;43.19
69351;BME280;57106;51.446;-2.606;2023-04-25T19:45:46;101753.20;;;10.80;43.72
69351;BME280;57106;51.446;-2.606;2023-04-25T19:48:12;101751.70;;;10.78;43.94
69351;BME280;57106;51.446;-2.606;2023-04-25T19:50:38;101754.76;;;10.76;43.90
69351;BME280;57106;51.446;-2.606;2023-04-25T19:53:03;101754.71;;;10.64;43.74
69351;BME280;57106;51.446;-2.606;2023-04-25T19:55:29;101760.42;;;10.72;44.15
69351;BME280;57106;51.446;-2.606;2023-04-25T19:58:03;101765.79;;;10.69;43.97
69351;BME280;57106;51.446;-2.606;2023-04-25T20:00:20;101772.88;;;10.60;44.33
69351;BME280;57106;51.446;-2.606;2023-04-25T20:05:13;101775.08;;;10.50;44.73
69351;BME280;57106;51.446;-2.606;2023-04-25T20:07:44;101773.63;;;10.65;44.40
69351;BME280;57106;51.446;-2.606;2023-04-25T20:10:07;101783.95;;;10.67;43.88
69351;BME280;57106;51.446;-2.606;2023-04-25T20:12:28;101788.17;;;10.55;44.56
69351;BME280;57106;51.446;-2.606;2023-04-25T20:14:54;101792.02;;;10.60;44.35
69351;BME280;57106;51.446;-2.606;2023-04-25T20:17:21;101787.74;;;10.79;43.75
69351;BME280;57106;51.446;-2.606;2023-04-25T20:19:45;101792.20;;;10.70;44.04
69351;BME280;57106;51.446;-2.606;2023-04-25T20:22:15;101798.79;;;10.62;44.33
69351;BME280;57106;51.446;-2.606;2023-04-25T20:24:36;101796.28;;;10.59;44.81
69351;BME280;57106;51.446;-2.606;2023-04-25T20:27:03;101793.94;;;10.57;44.55
69351;BME280;57106;51.446;-2.606;2023-04-25T20:29:29;101793.79;;;10.60;44.81
69351;BME280;57106;51.446;-2.606;2023-04-25T20:31:53;101796.38;;;10.49;44.91
69351;BME280;57106;51.446;-2.606;2023-04-25T20:34:21;101799.86;;;10.76;44.81
69351;BME280;57106;51.446;-2.606;2023-04-25T20:39:12;101797.09;;;11.20;44.34
69351;BME280;57106;51.446;-2.606;2023-04-25T20:41:35;101796.34;;;11.40;44.34
69351;BME280;57106;51.446;-2.606;2023-04-25T20:44:01;101794.22;;;11.45;44.55
69351;BME280;57106;51.446;-2.606;2023-04-25T20:46:27;101795.89;;;11.47;45.01
69351;BME280;57106;51.446;-2.606;2023-04-25T20:48:57;101790.07;;;11.53;45.36
69351;BME280;57106;51.446;-2.606;2023-04-25T20:51:20;101786.92;;;11.54;45.99
69351;BME280;57106;51.446;-2.606;2023-04-25T20:53:43;101792.92;;;11.25;46.78
69351;BME280;57106;51.446;-2.606;2023-04-25T20:56:10;101797.11;;;11.40;46.63
69351;BME280;57106;51.446;-2.606;2023-04-25T20:58:34;101797.10;;;11.08;48.03
69351;BME280;57106;51.446;-2.606;2023-04-25T21:05:52;101804.50;;;11.08;50.01
69351;BME280;57106;51.446;-2.606;2023-04-25T21:08:18;101806.87;;;11.03;50.11
69351;BME280;57106;51.446;-2.606;2023-04-25T21:18:00;101819.63;;;10.97;51.22
69351;BME280;57106;51.446;-2.606;2023-04-25T21:20:31;101815.35;;;10.82;51.50
69351;BME280;57106;51.446;-2.606;2023-04-25T21:22:52;101815.19;;;10.81;51.30
69351;BME280;57106;51.446;-2.606;2023-04-25T21:25:19;101816.32;;;10.65;51.88
69351;BME280;57106;51.446;-2.606;2023-04-25T21:27:43;101814.40;;;10.54;52.28
69351;BME280;57106;51.446;-2.606;2023-04-25T21:30:09;101818.17;;;10.48;52.61
69351;BME280;57106;51.446;-2.606;2023-04-25T21:32:34;101820.70;;;10.44;52.68
69351;BME280;57106;51.446;-2.606;2023-04-25T21:35:06;101822.37;;;10.16;53.51
69351;BME280;57106;51.446;-2.606;2023-04-25T21:37:34;101824.33;;;10.14;53.23
69351;BME280;57106;51.446;-2.606;2023-04-25T21:39:50;101828.00;;;10.14;53.29
69351;BME280;57106;51.446;-2.606;2023-04-25T21:42:16;101827.04;;;10.16;53.34
69351;BME280;57106;51.446;-2.606;2023-04-25T21:44:47;101821.05;;;9.99;53.77
69351;BME280;57106;51.446;-2.606;2023-04-25T21:47:07;101819.33;;;9.96;53.99
69351;BME280;57106;51.446;-2.606;2023-04-25T21:49:33;101817.10;;;9.91;53.92
69351;BME280;57106;51.446;-2.606;2023-04-25T21:51:58;101812.65;;;9.96;53.75
69351;BME280;57106;51.446;-2.606;2023-04-25T21:54:34;101814.17;;;9.87;53.63
69351;BME280;57106;51.446;-2.606;2023-04-25T21:56:49;101816.45;;;9.88;54.15
69351;BME280;57106;51.446;-2.606;2023-04-25T21:59:15;101815.65;;;9.81;54.03
69351;BME280;57106;51.446;-2.606;2023-04-25T22:01:42;101811.54;;;9.85;53.59
69351;BME280;57106;51.446;-2.606;2023-04-25T22:04:12;101808.97;;;9.88;52.99
69351;BME280;57106;51.446;-2.606;2023-04-25T22:06:32;101811.56;;;9.78;53.51
69351;BME280;57106;51.446;-2.606;2023-04-25T22:09:00;101812.82;;;9.77;53.56
69351;BME280;57106;51.446;-2.606;2023-04-25T22:11:27;101817.58;;;9.80;53.60
69351;BME280;57106;51.446;-2.606;2023-04-25T22:13:49;101814.23;;;9.73;54.02
69351;BME280;57106;51.446;-2.606;2023-04-25T22:16:14;101808.79;;;9.70;54.35
69351;BME280;57106;51.446;-2.606;2023-04-25T22:18:42;101810.10;;;9.71;54.54
69351;BME280;57106;51.446;-2.606;2023-04-25T22:21:05;101807.86;;;9.63;54.80
69351;BME280;57106;51.446;-2.606;2023-04-25T22:23:32;101798.19;;;9.53;55.18
69351;BME280;57106;51.446;-2.606;2023-04-25T22:25:57;101801.20;;;9.73;54.78
69351;BME280;57106;51.446;-2.606;2023-04-25T22:28:23;101803.89;;;9.79;54.56
69351;BME280;57106;51.446;-2.606;2023-04-25T22:30:48;101807.40;;;9.75;54.58
69351;BME280;57106;51.446;-2.606;2023-04-25T22:33:14;101812.70;;;9.60;55.05
69351;BME280;57106;51.446;-2.606;2023-04-25T22:35:40;101817.22;;;9.73;54.46
69351;BME280;57106;51.446;-2.606;2023-04-25T22:38:05;101817.98;;;9.83;54.25
69351;BME280;57106;51.446;-2.606;2023-04-25T22:40:36;101816.09;;;9.76;54.18
69351;BME280;57106;51.446;-2.606;2023-04-25T22:42:57;101811.79;;;9.71;55.09
69351;BME280;57106;51.446;-2.606;2023-04-25T22:45:23;101809.86;;;9.87;54.89
69351;BME280;57106;51.446;-2.606;2023-04-25T22:47:48;101820.15;;;9.82;54.35
69351;BME280;57106;51.446;-2.606;2023-04-25T22:50:33;101823.73;;;9.90;54.44
69351;BME280;57106;51.446;-2.606;2023-04-25T22:52:53;101820.94;;;9.97;53.95
69351;BME280;57106;51.446;-2.606;2023-04-25T22:55:23;101821.83;;;10.08;54.29
69351;BME280;57106;51.446;-2.606;2023-04-25T22:58:04;101825.03;;;10.28;53.89
69351;BME280;57106;51.446;-2.606;2023-04-25T23:00:30;101826.05;;;10.44;53.30